createdAt,value
2022-11-05T00:01:59.726Z,2.17
2022-11-05T00:04:44.965Z,1.80
2022-11-05T00:07:38.955Z,2.08
2022-11-05T00:10:06.581Z,2.05
2022-11-05T00:12:51.963Z,2.22
2022-11-05T00:15:37.051Z,2.20
2022-11-05T00:18:03.599Z,2.43
2022-11-05T00:20:29.985Z,2.35
2022-11-05T00:23:24.222Z,2.38
2022-11-05T00:25:58.206Z,2.45
2022-11-05T00:28:25.172Z,2.63
2022-11-05T00:30:52.125Z,2.13
2022-11-05T00:33:18.405Z,2.25
2022-11-05T00:35:44.832Z,2.30
2022-11-05T00:38:11.203Z,2.33
2022-11-05T00:40:37.833Z,2.40
2022-11-05T00:43:22.670Z,2.25
2022-11-05T00:45:48.994Z,2.70
2022-11-05T00:48:33.870Z,2.60
2022-11-05T00:51:00.129Z,2.40
2022-11-05T00:53:26.456Z,2.30
2022-11-05T00:55:52.737Z,2.35
2022-11-05T00:58:20.051Z,2.30
2022-11-05T01:00:51.111Z,2.15
2022-11-05T01:03:18.489Z,1.58
2022-11-05T01:05:46.477Z,1.73
2022-11-05T01:08:13.792Z,2.00
2022-11-05T01:10:41.208Z,2.38
2022-11-05T01:13:12.544Z,1.88
2022-11-05T01:15:40.032Z,2.05
2022-11-05T01:18:06.791Z,2.55
2022-11-05T01:20:33.123Z,2.30
2022-11-05T01:22:59.687Z,2.17
2022-11-05T01:25:25.974Z,2.65
2022-11-05T01:27:52.309Z,2.25
2022-11-05T01:30:18.666Z,2.13
2022-11-05T01:32:45.102Z,2.47
2022-11-05T01:35:13.551Z,2.35
2022-11-05T01:37:39.947Z,2.30
2022-11-05T01:40:08.074Z,2.22
2022-11-05T01:42:34.401Z,2.40
2022-11-05T01:45:06.565Z,2.60
2022-11-05T01:47:43.575Z,2.90
2022-11-05T01:50:18.646Z,2.22
2022-11-05T01:52:45.500Z,3.10
2022-11-05T01:55:13.324Z,2.38
2022-11-05T01:57:39.712Z,2.50
2022-11-05T02:00:06.538Z,2.83
2022-11-05T02:02:33.055Z,2.22
2022-11-05T02:05:02.102Z,2.70
2022-11-05T02:07:29.242Z,2.53
2022-11-05T02:10:01.840Z,2.30
2022-11-05T02:12:29.165Z,2.90
2022-11-05T02:14:58.590Z,3.15
2022-11-05T02:17:43.715Z,2.97
2022-11-05T02:20:23.542Z,3.53
2022-11-05T02:22:59.190Z,3.35
2022-11-05T02:25:57.840Z,2.85
2022-11-05T02:28:24.147Z,3.00
2022-11-05T02:30:50.485Z,2.97
2022-11-05T02:33:16.921Z,2.92
2022-11-05T02:36:01.904Z,2.70
2022-11-05T02:38:28.321Z,3.15
2022-11-05T02:40:59.528Z,2.70
2022-11-05T02:43:47.971Z,2.40
2022-11-05T02:46:21.204Z,2.85
2022-11-05T02:48:55.524Z,2.50
2022-11-05T02:51:30.684Z,2.65
2022-11-05T02:54:11.342Z,2.35
2022-11-05T02:56:40.031Z,2.75
2022-11-05T02:59:06.348Z,2.70
2022-11-05T03:01:34.002Z,3.10
2022-11-05T03:04:01.604Z,3.08
2022-11-05T03:06:33.395Z,3.53
2022-11-05T03:09:17.857Z,3.78
2022-11-05T03:11:53.246Z,2.90
2022-11-05T03:14:27.353Z,2.80
2022-11-05T03:17:09.282Z,2.58
2022-11-05T03:19:58.454Z,3.20
2022-11-05T03:22:28.968Z,2.22
2022-11-05T03:24:57.629Z,2.72
2022-11-05T03:27:27.368Z,2.90
2022-11-05T03:29:58.287Z,2.40
2022-11-05T03:32:26.096Z,2.47
2022-11-05T03:34:57.175Z,2.83
2022-11-05T03:37:24.122Z,2.80
2022-11-05T03:39:56.414Z,2.85
2022-11-05T03:42:25.818Z,2.97
2022-11-05T03:44:53.590Z,2.88
2022-11-05T03:47:22.364Z,3.20
2022-11-05T03:50:00.203Z,3.25
2022-11-05T03:52:30.072Z,3.40
2022-11-05T03:54:56.436Z,3.33
2022-11-05T03:57:28.326Z,3.83
2022-11-05T03:59:54.566Z,3.40
2022-11-05T04:02:22.711Z,3.88
2022-11-05T04:04:49.101Z,4.28
2022-11-05T04:07:34.192Z,3.60
2022-11-05T04:10:18.907Z,3.90
2022-11-05T04:13:03.727Z,3.42
2022-11-05T04:15:30.143Z,3.58
2022-11-05T04:17:58.844Z,3.67
2022-11-05T04:20:44.192Z,4.13
2022-11-05T04:23:30.968Z,3.97
2022-11-05T04:25:57.337Z,3.95
2022-11-05T04:28:43.549Z,3.85
2022-11-05T04:31:09.854Z,4.03
2022-11-05T04:33:36.117Z,3.35
2022-11-05T04:36:02.389Z,3.35
2022-11-05T04:38:28.678Z,3.55
2022-11-05T04:41:11.600Z,3.30
2022-11-05T04:43:37.876Z,3.47
2022-11-05T04:46:04.148Z,3.75
2022-11-05T04:48:30.386Z,3.50
2022-11-05T04:50:56.633Z,3.20
2022-11-05T04:53:23.036Z,2.90
2022-11-05T04:55:49.370Z,3.47
2022-11-05T04:58:15.694Z,3.88
2022-11-05T05:00:42.040Z,3.60
2022-11-05T05:03:08.664Z,3.65
2022-11-05T05:05:35.098Z,3.50
2022-11-05T05:08:01.840Z,3.65
2022-11-05T05:10:28.370Z,3.65
2022-11-05T05:12:54.611Z,3.85
2022-11-05T05:15:21.250Z,3.78
2022-11-05T05:17:51.639Z,3.75
2022-11-05T05:20:37.178Z,4.65
2022-11-05T05:23:03.695Z,3.50
2022-11-05T05:25:30.135Z,3.22
2022-11-05T05:27:57.549Z,3.20
2022-11-05T05:30:24.136Z,3.63
2022-11-05T05:32:50.480Z,3.08
2022-11-05T05:35:17.041Z,3.30
2022-11-05T05:37:44.165Z,2.92
2022-11-05T05:40:10.935Z,2.67
2022-11-05T05:42:42.723Z,3.08
2022-11-05T05:45:09.778Z,2.28
2022-11-05T05:47:36.276Z,2.40
2022-11-05T05:50:02.689Z,2.58
2022-11-05T05:52:28.982Z,2.30
2022-11-05T05:54:55.224Z,2.35
2022-11-05T05:57:21.511Z,2.33
2022-11-05T05:59:47.867Z,2.50
2022-11-05T06:02:14.230Z,2.17
2022-11-05T06:04:40.552Z,2.10
2022-11-05T06:07:07.479Z,1.75
2022-11-05T06:09:33.826Z,2.20
2022-11-05T06:12:00.155Z,2.33
2022-11-05T06:14:26.438Z,1.92
2022-11-05T06:16:52.725Z,2.17
2022-11-05T06:19:19.000Z,2.22
2022-11-05T06:21:45.304Z,1.88
2022-11-05T06:24:11.574Z,1.98
2022-11-05T06:26:42.743Z,1.83
2022-11-05T06:29:10.500Z,2.00
2022-11-05T06:31:36.739Z,2.78
2022-11-05T06:34:03.187Z,2.38
2022-11-05T06:36:29.437Z,2.40
2022-11-05T06:38:55.716Z,2.38
2022-11-05T06:41:22.469Z,2.70
2022-11-05T06:43:48.729Z,2.72
2022-11-05T06:46:15.026Z,3.03
2022-11-05T06:48:41.371Z,3.10
2022-11-05T06:51:08.119Z,3.00
2022-11-05T06:53:34.725Z,3.22
2022-11-05T06:56:07.483Z,3.20
2022-11-05T06:58:34.165Z,3.35
2022-11-05T07:01:04.262Z,3.75
2022-11-05T07:03:30.604Z,4.00
2022-11-05T07:05:59.663Z,3.40
2022-11-05T07:08:26.241Z,3.72
2022-11-05T07:10:52.589Z,4.40
2022-11-05T07:13:18.897Z,4.20
2022-11-05T07:15:45.483Z,4.18
2022-11-05T07:18:11.771Z,4.40
2022-11-05T07:20:37.998Z,4.45
2022-11-05T07:23:05.553Z,4.18
2022-11-05T07:25:32.515Z,4.20
2022-11-05T07:27:59.041Z,4.32
2022-11-05T07:30:25.392Z,4.70
2022-11-05T07:32:52.246Z,4.30
2022-11-05T07:35:18.542Z,4.72
2022-11-05T07:37:45.692Z,4.55
2022-11-05T07:40:12.522Z,4.80
2022-11-05T07:42:45.674Z,4.55
2022-11-05T07:45:12.764Z,5.07
2022-11-05T07:47:39.543Z,5.07
2022-11-05T07:50:06.206Z,5.38
2022-11-05T07:52:32.681Z,6.15
2022-11-05T07:54:59.250Z,5.68
2022-11-05T07:57:25.549Z,4.90
2022-11-05T07:59:52.291Z,4.88
2022-11-05T08:02:18.909Z,4.85
2022-11-05T08:04:45.494Z,5.18
2022-11-05T08:07:11.821Z,5.20
2022-11-05T08:09:38.089Z,4.97
2022-11-05T08:12:04.628Z,4.85
2022-11-05T08:14:30.952Z,4.68
2022-11-05T08:16:57.735Z,5.18
2022-11-05T08:19:24.089Z,4.75
2022-11-05T08:21:50.417Z,4.72
2022-11-05T08:24:16.704Z,5.03
2022-11-05T08:26:43.050Z,5.30
2022-11-05T08:29:09.416Z,4.63
2022-11-05T08:31:37.074Z,5.57
2022-11-05T08:34:03.418Z,4.68
2022-11-05T08:36:29.648Z,5.07
2022-11-05T08:38:55.987Z,5.35
2022-11-05T08:41:22.534Z,5.10
2022-11-05T08:43:48.859Z,4.70
2022-11-05T08:46:15.244Z,5.43
2022-11-05T08:48:41.593Z,4.97
2022-11-05T08:51:07.935Z,4.80
2022-11-05T08:53:34.295Z,4.90
2022-11-05T08:56:00.671Z,4.80
2022-11-05T08:58:26.996Z,4.90
2022-11-05T09:00:53.353Z,4.65
2022-11-05T09:03:20.685Z,4.20
2022-11-05T09:05:46.998Z,4.85
2022-11-05T09:08:17.890Z,4.22
2022-11-05T09:10:45.120Z,4.50
2022-11-05T09:13:17.855Z,4.65
2022-11-05T09:15:46.224Z,5.28
2022-11-05T09:18:13.635Z,4.28
2022-11-05T09:20:40.159Z,5.38
2022-11-05T09:23:07.275Z,5.35
2022-11-05T09:25:33.978Z,4.82
2022-11-05T09:28:14.660Z,5.00
2022-11-05T09:30:43.469Z,5.72
2022-11-05T09:33:10.633Z,4.57
2022-11-05T09:35:40.537Z,5.47
2022-11-05T09:38:07.073Z,5.60
2022-11-05T09:40:37.411Z,5.07
2022-11-05T09:43:04.314Z,5.47
2022-11-05T09:45:32.696Z,5.78
2022-11-05T09:48:01.587Z,5.55
2022-11-05T09:50:33.620Z,5.03
2022-11-05T09:53:00.641Z,5.38
2022-11-05T09:55:32.880Z,4.97
2022-11-05T09:58:01.257Z,5.13
2022-11-05T10:00:28.690Z,7.22
2022-11-05T10:02:58.660Z,5.18
2022-11-05T10:05:26.219Z,5.72
2022-11-05T10:08:13.532Z,5.82
2022-11-05T10:10:44.480Z,5.53
2022-11-05T10:13:29.623Z,6.22
2022-11-05T10:16:12.234Z,4.35
2022-11-05T10:18:39.995Z,4.97
2022-11-05T10:21:06.811Z,4.70
2022-11-05T10:23:33.105Z,5.00
2022-11-05T10:26:03.403Z,4.70
2022-11-05T10:28:31.558Z,4.28
2022-11-05T10:30:59.324Z,4.35
2022-11-05T10:33:30.867Z,4.07
2022-11-05T10:36:00.971Z,4.22
2022-11-05T10:38:27.672Z,3.95
2022-11-05T10:41:22.421Z,4.40
2022-11-05T10:43:54.305Z,4.10
2022-11-05T10:46:23.370Z,3.40
2022-11-05T10:48:57.729Z,4.18
2022-11-05T10:51:24.179Z,3.92
2022-11-05T10:54:00.488Z,3.90
2022-11-05T10:56:29.720Z,3.90
2022-11-05T10:58:57.021Z,4.40
2022-11-05T11:01:24.226Z,4.13
2022-11-05T11:03:51.603Z,4.00
2022-11-05T11:06:28.628Z,4.53
2022-11-05T11:08:56.104Z,4.25
2022-11-05T11:11:52.004Z,4.65
2022-11-05T11:14:19.584Z,4.93
2022-11-05T11:16:47.356Z,4.18
2022-11-05T11:19:30.118Z,3.53
2022-11-05T11:22:16.650Z,4.00
2022-11-05T11:24:48.148Z,4.20
2022-11-05T11:27:16.510Z,4.07
2022-11-05T11:29:49.129Z,4.32
2022-11-05T11:32:16.853Z,4.00
2022-11-05T11:34:44.547Z,4.63
2022-11-05T11:37:19.154Z,4.20
2022-11-05T11:39:48.313Z,4.28
2022-11-05T11:42:20.616Z,4.10
2022-11-05T11:44:47.343Z,4.15
2022-11-05T11:47:15.396Z,4.07
2022-11-05T11:49:41.625Z,4.15
2022-11-05T11:52:12.789Z,4.35
2022-11-05T11:54:39.226Z,3.90
2022-11-05T11:57:25.609Z,4.20
2022-11-05T12:00:08.240Z,3.85
2022-11-05T12:03:00.478Z,4.03
2022-11-05T12:05:34.086Z,4.32
2022-11-05T12:08:20.634Z,4.18
2022-11-05T12:10:59.296Z,4.05
2022-11-05T12:13:33.059Z,3.78
2022-11-05T12:16:22.593Z,3.30
2022-11-05T12:18:54.429Z,3.20
2022-11-05T12:21:52.174Z,3.38
2022-11-05T12:24:22.700Z,3.40
2022-11-05T12:26:58.022Z,3.72
2022-11-05T12:29:35.861Z,3.88
2022-11-05T12:32:21.693Z,3.65
2022-11-05T12:34:55.562Z,4.07
2022-11-05T12:37:49.388Z,3.50
2022-11-05T12:40:33.960Z,3.95
2022-11-05T12:43:19.351Z,3.63
2022-11-05T12:45:51.037Z,3.38
2022-11-05T12:48:34.230Z,3.13
2022-11-05T12:51:21.885Z,2.60
2022-11-05T12:53:48.123Z,3.00
2022-11-05T12:56:24.844Z,2.78
2022-11-05T12:59:02.698Z,3.78
2022-11-05T13:01:36.715Z,2.97
2022-11-05T13:04:08.651Z,3.13
2022-11-05T13:06:40.338Z,3.35
2022-11-05T13:09:27.178Z,4.55
2022-11-05T13:12:03.963Z,2.80
2022-11-05T13:14:40.202Z,2.83
2022-11-05T13:17:10.611Z,3.47
2022-11-05T13:19:49.821Z,3.35
2022-11-05T13:22:18.954Z,2.60
2022-11-05T13:24:49.756Z,2.10
2022-11-05T13:27:19.222Z,2.80
2022-11-05T13:29:48.792Z,2.53
2022-11-05T13:32:30.270Z,2.75
2022-11-05T13:34:57.906Z,2.35
2022-11-05T13:37:47.613Z,2.72
2022-11-05T13:40:17.066Z,2.28
2022-11-05T13:43:02.206Z,3.03
2022-11-05T13:45:31.373Z,2.90
2022-11-05T13:48:16.435Z,3.50
2022-11-05T13:50:42.720Z,3.23
2022-11-05T13:53:12.147Z,2.60
2022-11-05T13:56:09.493Z,3.90
2022-11-05T13:58:47.933Z,2.83
2022-11-05T14:01:20.381Z,3.13
2022-11-05T14:03:48.335Z,3.38
2022-11-05T14:06:22.558Z,3.97
2022-11-05T14:08:49.212Z,3.30
2022-11-05T14:11:25.202Z,3.78
2022-11-05T14:13:54.519Z,3.42
2022-11-05T14:16:22.715Z,3.85
2022-11-05T14:18:52.316Z,3.85
2022-11-05T14:21:27.804Z,4.18
2022-11-05T14:26:22.846Z,3.92
2022-11-05T14:29:09.373Z,4.50
2022-11-05T14:32:07.353Z,4.35
2022-11-05T14:34:48.272Z,4.03
2022-11-05T14:37:14.578Z,3.90
2022-11-05T14:39:41.084Z,3.95
2022-11-05T14:42:17.484Z,3.65
2022-11-05T14:45:22.620Z,4.53
2022-11-05T14:47:56.345Z,4.68
2022-11-05T14:50:27.756Z,3.90
2022-11-05T14:52:55.588Z,3.58
2022-11-05T14:55:29.473Z,3.72
2022-11-05T14:57:55.749Z,3.67
2022-11-05T15:00:40.515Z,3.22
2022-11-05T15:03:25.232Z,3.40
2022-11-05T15:05:52.078Z,3.90
2022-11-05T15:08:41.561Z,3.40
2022-11-05T15:11:23.042Z,3.25
2022-11-05T15:13:57.987Z,3.63
2022-11-05T15:16:25.446Z,3.10
2022-11-05T15:18:53.567Z,3.28
2022-11-05T15:21:20.477Z,3.63
2022-11-05T15:23:48.721Z,3.53
2022-11-05T15:26:17.878Z,3.35
2022-11-05T15:28:48.408Z,3.30
2022-11-05T15:31:14.641Z,3.10
2022-11-05T15:33:41.612Z,3.47
2022-11-05T15:36:26.744Z,3.05
2022-11-05T15:39:22.819Z,3.00
2022-11-05T15:41:39.604Z,2.85
2022-11-05T15:44:05.881Z,2.80
2022-11-05T15:46:32.148Z,2.92
2022-11-05T15:49:02.079Z,2.75
2022-11-05T15:51:29.422Z,2.90
2022-11-05T15:56:49.398Z,2.95
2022-11-05T15:59:22.786Z,3.10
2022-11-05T16:01:50.958Z,3.03
2022-11-05T16:04:25.338Z,3.20
2022-11-05T16:06:53.377Z,3.78
2022-11-05T16:09:26.723Z,3.33
2022-11-05T16:11:53.829Z,2.85
2022-11-05T16:14:20.153Z,2.88
2022-11-05T16:16:46.713Z,3.38
2022-11-05T16:19:37.006Z,4.97
2022-11-05T16:22:06.192Z,3.60
2022-11-05T16:24:32.821Z,3.47
2022-11-05T16:27:03.040Z,4.03
2022-11-05T16:29:40.134Z,3.97
2022-11-05T16:32:13.367Z,3.85
2022-11-05T16:34:41.248Z,3.70
2022-11-05T16:37:09.849Z,4.28
2022-11-05T16:39:36.237Z,4.43
2022-11-05T16:42:07.975Z,4.13
2022-11-05T16:44:34.286Z,4.10
2022-11-05T16:47:00.544Z,4.97
2022-11-05T16:49:27.941Z,3.95
2022-11-05T16:51:54.213Z,3.80
2022-11-05T16:54:20.463Z,4.18
2022-11-05T16:56:47.412Z,3.58
2022-11-05T16:59:13.819Z,5.25
2022-11-05T17:01:42.041Z,4.07
2022-11-05T17:04:09.353Z,4.93
2022-11-05T17:06:35.603Z,4.15
2022-11-05T17:09:01.865Z,3.88
2022-11-05T17:11:28.132Z,4.05
2022-11-05T17:13:54.362Z,4.28
2022-11-05T17:16:20.676Z,4.75
2022-11-05T17:18:47.057Z,5.43
2022-11-05T17:21:14.124Z,4.28
2022-11-05T17:23:40.361Z,4.78
2022-11-05T17:26:08.094Z,4.07
2022-11-05T17:28:34.810Z,4.05
2022-11-05T17:31:01.972Z,5.30
2022-11-05T17:33:28.528Z,4.43
2022-11-05T17:35:55.655Z,4.45
2022-11-05T17:38:22.837Z,4.60
2022-11-05T17:40:49.392Z,4.80
2022-11-05T17:43:16.127Z,4.10
2022-11-05T17:45:43.498Z,4.05
2022-11-05T17:48:10.419Z,4.97
2022-11-05T17:50:43.702Z,5.00
2022-11-05T17:53:10.570Z,4.35
2022-11-05T17:55:37.290Z,4.55
2022-11-05T17:58:03.639Z,4.60
2022-11-05T18:00:30.147Z,4.20
2022-11-05T18:02:56.808Z,4.45
2022-11-05T18:05:24.103Z,4.88
2022-11-05T18:07:50.857Z,4.57
2022-11-05T18:10:17.519Z,3.92
2022-11-05T18:12:43.949Z,4.65
2022-11-05T18:15:10.918Z,5.22
2022-11-05T18:17:37.234Z,4.60
2022-11-05T18:20:04.151Z,4.50
2022-11-05T18:22:30.501Z,4.28
2022-11-05T18:24:56.918Z,4.47
2022-11-05T18:27:27.854Z,4.40
2022-11-05T18:29:54.491Z,4.57
2022-11-05T18:32:21.031Z,5.28
2022-11-05T18:34:47.364Z,4.85
2022-11-05T18:37:13.983Z,4.75
2022-11-05T18:39:40.361Z,4.68
2022-11-05T18:42:06.676Z,5.07
2022-11-05T18:44:38.773Z,5.15
2022-11-05T18:47:06.780Z,4.85
2022-11-05T18:49:33.170Z,5.30
2022-11-05T18:51:59.527Z,4.85
2022-11-05T18:54:25.804Z,5.18
2022-11-05T18:56:52.047Z,3.95
2022-11-05T19:02:05.577Z,4.35
2022-11-05T19:04:32.312Z,4.75
2022-11-05T19:07:03.276Z,4.00
2022-11-05T19:09:31.306Z,4.80
2022-11-05T19:11:58.003Z,4.07
2022-11-05T19:14:24.354Z,4.75
2022-11-05T19:16:50.637Z,4.32
2022-11-05T19:19:17.177Z,4.63
2022-11-05T19:21:45.570Z,4.28
2022-11-05T19:24:16.596Z,4.47
2022-11-05T19:26:43.446Z,4.97
2022-11-05T19:29:12.177Z,4.97
2022-11-05T19:31:38.568Z,4.30
2022-11-05T19:34:05.607Z,4.53
2022-11-05T19:36:32.867Z,4.03
2022-11-05T19:39:00.482Z,4.97
2022-11-05T19:41:27.261Z,4.95
2022-11-05T19:43:54.866Z,5.25
2022-11-05T19:46:21.996Z,4.70
2022-11-05T19:48:48.426Z,4.68
2022-11-05T19:51:19.063Z,4.60
2022-11-05T19:53:45.723Z,4.60
2022-11-05T19:56:15.936Z,4.38
2022-11-05T19:58:42.543Z,4.45
2022-11-05T20:01:09.255Z,4.38
2022-11-05T20:03:37.533Z,4.35
2022-11-05T20:06:05.234Z,4.50
2022-11-05T20:08:31.476Z,3.95
2022-11-05T20:10:58.015Z,4.57
2022-11-05T20:13:24.534Z,4.57
2022-11-05T20:15:51.127Z,4.43
2022-11-05T20:18:17.560Z,5.10
2022-11-05T20:20:44.457Z,4.80
2022-11-05T20:23:11.246Z,4.53
2022-11-05T20:25:37.529Z,4.38
2022-11-05T20:28:03.852Z,4.13
2022-11-05T20:30:30.415Z,4.75
2022-11-05T20:32:57.045Z,4.45
2022-11-05T20:35:24.181Z,4.72
2022-11-05T20:37:54.000Z,4.30
2022-11-05T20:40:20.747Z,4.65
2022-11-05T20:42:47.026Z,4.38
2022-11-05T20:45:13.613Z,4.70
2022-11-05T20:47:39.935Z,4.70
2022-11-05T20:50:06.777Z,4.80
2022-11-05T20:52:33.435Z,4.80
2022-11-05T20:55:01.094Z,4.75
2022-11-05T20:57:28.324Z,5.15
2022-11-05T20:59:54.858Z,4.50
2022-11-05T21:02:21.199Z,4.63
2022-11-05T21:04:47.752Z,5.32
2022-11-05T21:07:14.046Z,4.45
2022-11-05T21:09:40.800Z,4.60
2022-11-05T21:12:10.040Z,5.03
2022-11-05T21:14:39.771Z,4.32
2022-11-05T21:17:07.322Z,4.88
2022-11-05T21:19:34.118Z,4.15
2022-11-05T21:22:00.651Z,4.90
2022-11-05T21:24:27.175Z,5.13
2022-11-05T21:26:53.679Z,4.90
2022-11-05T21:29:19.954Z,4.47
2022-11-05T21:31:46.722Z,5.35
2022-11-05T21:34:13.011Z,5.10
2022-11-05T21:36:40.176Z,5.00
2022-11-05T21:39:13.073Z,5.07
2022-11-05T21:41:39.996Z,5.50
2022-11-05T21:44:06.362Z,4.88
2022-11-05T21:46:32.685Z,5.38
2022-11-05T21:48:59.045Z,4.82
2022-11-05T21:51:44.043Z,4.57
2022-11-05T21:54:29.259Z,4.33
2022-11-05T21:57:14.237Z,5.28
2022-11-05T21:59:51.312Z,4.82
2022-11-05T22:02:19.513Z,5.72
2022-11-05T22:04:57.170Z,4.82
2022-11-05T22:07:25.166Z,4.95
2022-11-05T22:09:51.883Z,3.80
2022-11-05T22:12:18.519Z,4.75
2022-11-05T22:14:44.851Z,4.40
2022-11-05T22:17:11.793Z,4.95
2022-11-05T22:19:38.123Z,4.70
2022-11-05T22:22:05.376Z,5.13
2022-11-05T22:24:31.941Z,4.97
2022-11-05T22:27:01.775Z,5.38
2022-11-05T22:29:28.169Z,4.72
2022-11-05T22:31:54.794Z,4.78
2022-11-05T22:34:21.194Z,4.43
2022-11-05T22:36:47.453Z,4.70
2022-11-05T22:39:14.017Z,4.47
2022-11-05T22:41:40.389Z,4.15
2022-11-05T22:44:06.790Z,4.53
2022-11-05T22:46:33.188Z,4.65
2022-11-05T22:48:59.945Z,4.32
2022-11-05T22:51:28.198Z,4.10
2022-11-05T22:53:57.390Z,3.65
2022-11-05T22:56:25.093Z,3.90
2022-11-05T22:58:52.067Z,4.22
2022-11-05T23:01:18.930Z,3.97
2022-11-05T23:03:46.225Z,3.92
2022-11-05T23:06:32.283Z,4.38
2022-11-05T23:09:17.890Z,4.20
2022-11-05T23:11:45.453Z,3.80
2022-11-05T23:14:12.585Z,4.15
2022-11-05T23:16:58.152Z,4.13
2022-11-05T23:19:43.908Z,4.13
2022-11-05T23:22:35.801Z,4.07
2022-11-05T23:25:02.216Z,4.10
2022-11-05T23:27:30.093Z,4.00
2022-11-05T23:30:00.340Z,4.53
2022-11-05T23:32:28.405Z,3.92
2022-11-05T23:34:55.450Z,4.35
2022-11-05T23:37:41.010Z,3.90
2022-11-05T23:40:08.792Z,4.18
2022-11-05T23:42:53.635Z,3.72
2022-11-05T23:45:38.354Z,4.00
2022-11-05T23:48:18.226Z,4.00
2022-11-05T23:50:47.557Z,3.78
2022-11-05T23:53:13.889Z,4.00
2022-11-05T23:55:40.376Z,3.45
2022-11-05T23:58:06.771Z,3.75
